createdAt,value
2022-11-30T00:00:17.390Z,98.24
2022-11-30T00:01:17.388Z,98.59
2022-11-30T00:02:17.465Z,98.33
2022-11-30T00:03:17.564Z,98.49
2022-11-30T00:04:17.498Z,98.65
2022-11-30T00:05:17.539Z,98.38
2022-11-30T00:06:17.600Z,98.49
2022-11-30T00:07:17.637Z,98.65
2022-11-30T00:08:17.670Z,98.44
2022-11-30T00:09:17.700Z,98.13
2022-11-30T00:10:17.700Z,98.03
2022-11-30T00:11:17.708Z,97.92
2022-11-30T00:12:17.721Z,97.52
2022-11-30T00:13:17.721Z,97.92
2022-11-30T00:14:17.782Z,97.31
2022-11-30T00:15:17.802Z,97.72
2022-11-30T00:16:17.893Z,97.62
2022-11-30T00:17:17.837Z,97.41
2022-11-30T00:18:17.844Z,97.41
2022-11-30T00:19:17.849Z,97.10
2022-11-30T00:20:17.859Z,97.27
2022-11-30T00:21:17.870Z,96.95
2022-11-30T00:22:17.903Z,96.34
2022-11-30T00:23:17.895Z,96.95
2022-11-30T00:24:17.946Z,96.48
2022-11-30T00:25:17.972Z,96.90
2022-11-30T00:26:17.976Z,96.90
2022-11-30T00:27:18.008Z,97.41
2022-11-30T00:28:18.015Z,97.20
2022-11-30T00:29:18.056Z,97.20
2022-11-30T00:30:18.135Z,97.41
2022-11-30T00:31:18.412Z,97.52
2022-11-30T00:32:18.250Z,97.72
2022-11-30T00:33:18.256Z,97.41
2022-11-30T00:34:18.276Z,97.27
2022-11-30T00:35:18.276Z,96.90
2022-11-30T00:36:18.276Z,96.90
2022-11-30T00:37:18.267Z,97.00
2022-11-30T00:38:18.318Z,97.41
2022-11-30T00:39:18.387Z,97.72
2022-11-30T00:40:18.388Z,97.72
2022-11-30T00:41:18.399Z,97.41
2022-11-30T00:42:18.411Z,97.20
2022-11-30T00:43:18.439Z,97.20
2022-11-30T00:44:18.484Z,97.52
2022-11-30T00:45:18.511Z,97.00
2022-11-30T00:46:18.600Z,97.00
2022-11-30T00:47:18.558Z,97.00
2022-11-30T00:48:18.579Z,97.10
2022-11-30T00:49:18.601Z,97.20
2022-11-30T00:50:18.600Z,97.10
2022-11-30T00:51:18.653Z,97.06
2022-11-30T00:52:18.642Z,97.06
2022-11-30T00:53:18.650Z,96.85
2022-11-30T00:54:18.650Z,96.85
2022-11-30T00:55:18.671Z,96.65
2022-11-30T00:56:18.661Z,96.65
2022-11-30T00:57:18.663Z,96.44
2022-11-30T00:58:18.661Z,96.30
2022-11-30T00:59:18.653Z,96.14
2022-11-30T01:00:18.658Z,96.23
2022-11-30T01:01:18.720Z,96.23
2022-11-30T01:02:18.771Z,96.34
2022-11-30T01:03:18.745Z,96.55
2022-11-30T01:04:18.813Z,96.59
2022-11-30T01:05:18.842Z,97.10
2022-11-30T01:06:18.853Z,97.41
2022-11-30T01:07:18.871Z,97.20
2022-11-30T01:08:18.854Z,97.10
2022-11-30T01:09:18.887Z,97.66
2022-11-30T01:10:18.924Z,97.77
2022-11-30T01:11:18.934Z,97.97
2022-11-30T01:12:18.935Z,98.03
2022-11-30T01:13:18.955Z,97.82
2022-11-30T01:14:18.963Z,97.62
2022-11-30T01:15:18.955Z,97.31
2022-11-30T01:16:18.998Z,97.27
2022-11-30T01:17:18.946Z,96.90
2022-11-30T01:18:19.016Z,96.69
2022-11-30T01:19:19.016Z,97.45
2022-11-30T01:20:19.020Z,97.72
2022-11-30T01:21:19.027Z,97.41
2022-11-30T01:22:19.037Z,97.62
2022-11-30T01:23:19.041Z,97.62
2022-11-30T01:24:19.048Z,97.27
2022-11-30T01:25:19.047Z,97.10
2022-11-30T01:26:19.060Z,96.90
2022-11-30T01:27:19.051Z,97.10
2022-11-30T01:28:19.129Z,97.15
2022-11-30T01:29:19.160Z,97.66
2022-11-30T01:30:19.161Z,97.66
2022-11-30T01:31:19.258Z,97.56
2022-11-30T01:32:19.307Z,97.77
2022-11-30T01:33:19.219Z,97.66
2022-11-30T01:34:19.240Z,97.56
2022-11-30T01:35:19.258Z,97.66
2022-11-30T01:36:19.263Z,97.77
2022-11-30T01:37:19.302Z,97.56
2022-11-30T01:38:19.359Z,97.66
2022-11-30T01:39:19.362Z,97.87
2022-11-30T01:40:19.392Z,97.77
2022-11-30T01:41:19.368Z,97.77
2022-11-30T01:42:19.367Z,97.56
2022-11-30T01:43:19.375Z,97.52
2022-11-30T01:44:20.339Z,97.52
2022-11-30T01:45:19.412Z,97.31
2022-11-30T01:46:19.457Z,96.69
2022-11-30T01:47:19.463Z,97.00
2022-11-30T01:48:19.473Z,97.00
2022-11-30T01:49:19.474Z,97.25
2022-11-30T01:50:19.503Z,97.41
2022-11-30T01:51:19.503Z,97.31
2022-11-30T01:52:19.523Z,97.20
2022-11-30T01:53:19.544Z,97.15
2022-11-30T01:54:19.526Z,97.87
2022-11-30T01:55:19.536Z,97.87
2022-11-30T01:56:19.534Z,97.56
2022-11-30T01:57:19.545Z,97.66
2022-11-30T01:58:19.567Z,97.77
2022-11-30T01:59:19.575Z,97.77
2022-11-30T02:00:19.580Z,97.31
2022-11-30T02:01:19.671Z,97.15
2022-11-30T02:02:19.639Z,97.66
2022-11-30T02:03:19.666Z,97.66
2022-11-30T02:04:19.697Z,97.87
2022-11-30T02:05:19.704Z,97.56
2022-11-30T02:06:19.707Z,97.66
2022-11-30T02:07:19.849Z,97.15
2022-11-30T02:08:19.862Z,97.71
2022-11-30T02:09:19.774Z,97.81
2022-11-30T02:10:19.817Z,98.43
2022-11-30T02:11:19.889Z,98.43
2022-11-30T02:12:19.882Z,98.53
2022-11-30T02:13:19.878Z,98.43
2022-11-30T02:14:19.878Z,98.33
2022-11-30T02:15:19.889Z,98.22
2022-11-30T02:16:19.921Z,98.53
2022-11-30T02:17:19.912Z,98.12
2022-11-30T02:18:19.889Z,98.22
2022-11-30T02:19:19.910Z,98.33
2022-11-30T02:20:19.957Z,98.43
2022-11-30T02:21:19.971Z,98.53
2022-11-30T02:22:20.025Z,98.74
2022-11-30T02:23:20.030Z,98.74
2022-11-30T02:24:20.031Z,98.74
2022-11-30T02:25:20.033Z,98.74
2022-11-30T02:26:20.072Z,98.43
2022-11-30T02:27:20.082Z,98.53
2022-11-30T02:28:20.080Z,98.94
2022-11-30T02:29:20.084Z,98.84
2022-11-30T02:30:20.087Z,98.69
2022-11-30T02:31:20.182Z,98.49
2022-11-30T02:32:20.093Z,98.38
2022-11-30T02:33:20.094Z,98.18
2022-11-30T02:34:20.103Z,97.97
2022-11-30T02:35:20.134Z,97.66
2022-11-30T02:36:20.133Z,97.77
2022-11-30T02:37:20.135Z,97.71
2022-11-30T02:38:20.165Z,98.02
2022-11-30T02:39:20.164Z,98.43
2022-11-30T02:40:20.183Z,98.53
2022-11-30T02:41:20.185Z,98.63
2022-11-30T02:42:20.202Z,98.38
2022-11-30T02:43:20.207Z,98.49
2022-11-30T02:44:20.216Z,98.38
2022-11-30T02:45:20.229Z,97.97
2022-11-30T02:46:20.285Z,98.02
2022-11-30T02:47:20.291Z,98.43
2022-11-30T02:48:20.286Z,98.49
2022-11-30T02:49:20.304Z,98.18
2022-11-30T02:50:20.307Z,98.02
2022-11-30T02:51:20.330Z,98.18
2022-11-30T02:52:20.346Z,97.97
2022-11-30T02:53:20.350Z,97.97
2022-11-30T02:54:20.347Z,97.66
2022-11-30T02:55:20.361Z,97.97
2022-11-30T02:56:20.378Z,97.56
2022-11-30T02:57:20.459Z,97.91
2022-11-30T02:58:20.460Z,98.43
2022-11-30T02:59:20.489Z,98.22
2022-11-30T03:00:20.499Z,98.53
2022-11-30T03:01:20.531Z,98.47
2022-11-30T03:02:20.604Z,98.88
2022-11-30T03:03:20.530Z,98.99
2022-11-30T03:04:20.539Z,99.09
2022-11-30T03:05:20.534Z,98.88
2022-11-30T03:06:20.540Z,99.30
2022-11-30T03:07:20.650Z,99.19
2022-11-30T03:08:20.602Z,99.09
2022-11-30T03:09:20.601Z,99.05
2022-11-30T03:10:20.662Z,98.79
2022-11-30T03:11:20.691Z,98.99
2022-11-30T03:12:20.741Z,99.09
2022-11-30T03:13:20.765Z,98.99
2022-11-30T03:14:20.773Z,99.09
2022-11-30T03:15:20.762Z,99.09
2022-11-30T03:16:20.813Z,98.79
2022-11-30T03:17:20.840Z,98.88
2022-11-30T03:18:20.888Z,99.30
2022-11-30T03:19:20.904Z,99.30
2022-11-30T03:20:20.885Z,99.51
2022-11-30T03:21:20.886Z,99.56
2022-11-30T03:22:20.885Z,98.94
2022-11-30T03:23:20.885Z,98.79
2022-11-30T03:24:20.925Z,98.68
2022-11-30T03:25:20.946Z,98.68
2022-11-30T03:26:20.918Z,98.79
2022-11-30T03:27:20.935Z,98.88
2022-11-30T03:28:20.939Z,99.09
2022-11-30T03:29:20.926Z,98.88
2022-11-30T03:30:20.985Z,98.68
2022-11-30T03:31:21.054Z,98.88
2022-11-30T03:32:21.036Z,99.09
2022-11-30T03:33:21.066Z,99.30
2022-11-30T03:34:21.070Z,99.40
2022-11-30T03:35:21.085Z,99.30
2022-11-30T03:36:21.088Z,98.99
2022-11-30T03:37:21.106Z,99.19
2022-11-30T03:38:21.118Z,99.09
2022-11-30T03:39:21.109Z,99.09
2022-11-30T03:40:21.128Z,98.99
2022-11-30T03:41:21.148Z,98.94
2022-11-30T03:42:21.164Z,98.43
2022-11-30T03:43:21.221Z,98.27
2022-11-30T03:44:21.249Z,98.58
2022-11-30T03:45:21.326Z,98.79
2022-11-30T03:46:21.385Z,99.05
2022-11-30T03:47:21.310Z,98.84
2022-11-30T03:48:21.321Z,98.22
2022-11-30T03:49:21.320Z,98.06
2022-11-30T03:50:21.323Z,98.47
2022-11-30T03:51:21.318Z,98.37
2022-11-30T03:52:21.331Z,98.58
2022-11-30T03:53:21.321Z,98.53
2022-11-30T03:54:21.323Z,98.12
2022-11-30T03:55:21.323Z,98.27
2022-11-30T03:56:21.322Z,98.47
2022-11-30T03:57:22.290Z,98.33
2022-11-30T03:58:21.383Z,98.33
2022-11-30T03:59:21.382Z,98.22
2022-11-30T04:00:21.385Z,98.22
2022-11-30T04:01:21.414Z,98.33
2022-11-30T04:02:21.433Z,98.27
2022-11-30T04:03:21.508Z,98.47
2022-11-30T04:04:21.492Z,98.43
2022-11-30T04:05:21.494Z,98.22
2022-11-30T04:06:21.496Z,98.22
2022-11-30T04:07:21.515Z,98.02
2022-11-30T04:08:21.530Z,97.91
2022-11-30T04:09:21.535Z,98.02
2022-11-30T04:10:21.535Z,97.91
2022-11-30T04:11:21.545Z,97.77
2022-11-30T04:12:21.552Z,97.56
2022-11-30T04:13:21.554Z,97.45
2022-11-30T04:14:21.577Z,97.36
2022-11-30T04:15:21.585Z,97.36
2022-11-30T04:16:21.689Z,97.25
2022-11-30T04:17:21.636Z,97.05
2022-11-30T04:18:21.636Z,96.53
2022-11-30T04:19:21.695Z,96.89
2022-11-30T04:20:21.684Z,97.50
2022-11-30T04:21:21.698Z,97.40
2022-11-30T04:22:21.690Z,97.81
2022-11-30T04:23:21.696Z,97.71
2022-11-30T04:24:21.699Z,97.50
2022-11-30T04:25:21.739Z,97.61
2022-11-30T04:26:21.808Z,97.86
2022-11-30T04:27:21.876Z,98.16
2022-11-30T04:28:21.898Z,98.58
2022-11-30T04:29:21.899Z,98.16
2022-11-30T04:30:21.899Z,98.06
2022-11-30T04:31:21.950Z,98.16
2022-11-30T04:32:21.971Z,98.37
2022-11-30T04:33:21.955Z,98.16
2022-11-30T04:34:21.969Z,98.02
2022-11-30T04:35:21.971Z,97.61
2022-11-30T04:36:21.980Z,97.71
2022-11-30T04:37:21.980Z,97.81
2022-11-30T04:38:21.972Z,97.66
2022-11-30T04:39:22.000Z,97.25
2022-11-30T04:40:22.001Z,97.15
2022-11-30T04:41:22.011Z,96.94
2022-11-30T04:42:22.030Z,97.05
2022-11-30T04:43:22.032Z,96.43
2022-11-30T04:44:22.042Z,96.47
2022-11-30T04:45:22.072Z,96.78
2022-11-30T04:46:22.211Z,97.40
2022-11-30T04:47:22.141Z,97.40
2022-11-30T04:48:22.133Z,97.30
2022-11-30T04:49:22.172Z,97.36
2022-11-30T04:50:22.173Z,97.15
2022-11-30T04:51:22.182Z,96.84
2022-11-30T04:52:22.181Z,96.89
2022-11-30T04:53:22.174Z,97.15
2022-11-30T04:54:22.184Z,96.84
2022-11-30T04:55:22.203Z,96.53
2022-11-30T04:56:22.204Z,96.94
2022-11-30T04:57:22.205Z,96.68
2022-11-30T04:58:22.195Z,97.30
2022-11-30T04:59:22.205Z,97.15
2022-11-30T05:00:22.235Z,97.05
2022-11-30T05:01:22.285Z,96.73
2022-11-30T05:02:22.226Z,96.73
2022-11-30T05:03:22.237Z,96.64
2022-11-30T05:04:22.273Z,96.43
2022-11-30T05:05:22.287Z,96.12
2022-11-30T05:06:22.307Z,96.53
2022-11-30T05:07:22.342Z,96.64
2022-11-30T05:08:22.375Z,96.53
2022-11-30T05:09:22.387Z,96.53
2022-11-30T05:10:22.387Z,96.53
2022-11-30T05:11:22.407Z,96.73
2022-11-30T05:12:22.407Z,96.43
2022-11-30T05:13:22.420Z,96.33
2022-11-30T05:14:22.418Z,96.64
2022-11-30T05:15:22.435Z,96.64
2022-11-30T05:16:22.501Z,96.33
2022-11-30T05:17:22.440Z,96.43
2022-11-30T05:18:22.446Z,96.33
2022-11-30T05:19:22.451Z,96.22
2022-11-30T05:20:22.450Z,96.12
2022-11-30T05:21:22.450Z,95.92
2022-11-30T05:22:22.480Z,96.22
2022-11-30T05:23:22.493Z,96.02
2022-11-30T05:24:22.522Z,96.17
2022-11-30T05:25:22.523Z,96.68
2022-11-30T05:26:22.553Z,96.78
2022-11-30T05:27:22.975Z,97.09
2022-11-30T05:28:22.611Z,96.99
2022-11-30T05:29:22.621Z,96.99
2022-11-30T05:30:22.625Z,97.03
2022-11-30T05:31:22.767Z,97.03
2022-11-30T05:32:22.755Z,97.34
2022-11-30T05:33:22.775Z,97.44
2022-11-30T05:34:22.793Z,97.34
2022-11-30T05:35:22.804Z,97.40
2022-11-30T05:36:22.794Z,97.09
2022-11-30T05:37:22.854Z,96.83
2022-11-30T05:38:22.844Z,97.14
2022-11-30T05:39:22.856Z,97.09
2022-11-30T05:40:22.857Z,96.93
2022-11-30T05:41:22.854Z,97.09
2022-11-30T05:42:22.877Z,96.89
2022-11-30T05:43:22.864Z,96.78
2022-11-30T05:44:22.866Z,96.53
2022-11-30T05:45:22.873Z,96.27
2022-11-30T05:46:22.929Z,96.06
2022-11-30T05:47:22.867Z,96.58
2022-11-30T05:48:22.866Z,96.47
2022-11-30T05:49:22.874Z,96.27
2022-11-30T05:50:22.867Z,96.47
2022-11-30T05:51:22.869Z,96.52
2022-11-30T05:52:22.886Z,96.78
2022-11-30T05:53:22.898Z,96.62
2022-11-30T05:54:22.890Z,96.93
2022-11-30T05:55:22.877Z,96.93
2022-11-30T05:56:22.878Z,96.89
2022-11-30T05:57:22.909Z,96.89
2022-11-30T05:58:22.908Z,96.68
2022-11-30T05:59:22.920Z,96.47
2022-11-30T06:00:22.918Z,96.27
2022-11-30T06:01:22.918Z,96.78
2022-11-30T06:02:27.921Z,96.78
2022-11-30T06:03:23.057Z,96.99
2022-11-30T06:04:22.970Z,96.68
2022-11-30T06:05:22.969Z,96.27
2022-11-30T06:06:22.969Z,96.37
2022-11-30T06:07:23.011Z,96.58
2022-11-30T06:08:23.000Z,96.06
2022-11-30T06:09:23.011Z,96.17
2022-11-30T06:10:23.012Z,96.17
2022-11-30T06:11:23.010Z,96.62
2022-11-30T06:12:23.012Z,96.68
2022-11-30T06:13:28.597Z,96.58
2022-11-30T06:14:23.020Z,96.58
2022-11-30T06:15:23.034Z,96.68
2022-11-30T06:16:23.071Z,96.89
2022-11-30T06:17:23.083Z,96.68
2022-11-30T06:18:23.093Z,96.68
2022-11-30T06:19:23.092Z,96.68
2022-11-30T06:20:23.113Z,96.27
2022-11-30T06:21:24.903Z,96.27
2022-11-30T06:22:23.171Z,96.47
2022-11-30T06:23:23.174Z,96.27
2022-11-30T06:24:23.185Z,96.27
2022-11-30T06:25:23.194Z,96.37
2022-11-30T06:26:23.193Z,96.47
2022-11-30T06:27:23.193Z,96.27
2022-11-30T06:28:23.202Z,96.47
2022-11-30T06:29:23.224Z,96.33
2022-11-30T06:30:23.244Z,96.12
2022-11-30T06:31:23.301Z,96.27
2022-11-30T06:32:23.256Z,96.12
2022-11-30T06:33:23.268Z,96.17
2022-11-30T06:34:23.266Z,96.27
2022-11-30T06:35:23.287Z,96.37
2022-11-30T06:36:23.287Z,96.37
2022-11-30T06:37:23.294Z,96.12
2022-11-30T06:38:23.287Z,96.02
2022-11-30T06:39:42.989Z,95.92
2022-11-30T06:40:23.297Z,96.02
2022-11-30T06:41:23.324Z,95.92
2022-11-30T06:42:23.328Z,95.81
2022-11-30T06:43:23.329Z,95.81
2022-11-30T06:44:23.341Z,95.71
2022-11-30T06:45:23.346Z,95.71
2022-11-30T06:46:23.359Z,95.71
2022-11-30T06:47:23.359Z,95.61
2022-11-30T06:48:23.372Z,95.61
2022-11-30T06:49:23.371Z,95.50
2022-11-30T06:50:23.369Z,95.61
2022-11-30T06:51:23.399Z,95.50
2022-11-30T06:52:23.399Z,95.30
2022-11-30T06:53:23.412Z,95.40
2022-11-30T06:54:23.419Z,95.30
2022-11-30T06:55:23.421Z,95.71
2022-11-30T06:56:23.431Z,95.50
2022-11-30T06:57:23.430Z,95.71
2022-11-30T06:58:23.452Z,95.61
2022-11-30T06:59:23.451Z,95.50
2022-11-30T07:00:23.481Z,95.40
2022-11-30T07:01:23.551Z,95.71
2022-11-30T07:02:23.584Z,95.50
2022-11-30T07:03:23.612Z,95.61
2022-11-30T07:04:23.761Z,95.40
2022-11-30T07:05:23.694Z,95.61
2022-11-30T07:06:23.713Z,95.50
2022-11-30T07:07:23.791Z,95.71
2022-11-30T07:08:23.762Z,95.61
2022-11-30T07:09:23.803Z,95.71
2022-11-30T07:10:23.943Z,95.61
2022-11-30T07:11:23.874Z,95.86
2022-11-30T07:12:24.054Z,96.06
2022-11-30T07:13:23.905Z,96.37
2022-11-30T07:14:23.944Z,96.47
2022-11-30T07:15:23.998Z,96.62
2022-11-30T07:16:24.056Z,97.03
2022-11-30T07:17:24.016Z,96.93
2022-11-30T07:18:30.116Z,97.34
2022-11-30T07:19:24.060Z,97.19
2022-11-30T07:20:24.103Z,97.19
2022-11-30T07:21:24.137Z,96.89
2022-11-30T07:22:24.156Z,96.84
2022-11-30T07:23:24.226Z,96.64
2022-11-30T07:24:24.258Z,96.43
2022-11-30T07:25:24.288Z,96.33
2022-11-30T07:26:24.319Z,96.33
2022-11-30T07:27:24.379Z,96.12
2022-11-30T07:28:24.430Z,96.12
2022-11-30T07:29:24.393Z,95.92
2022-11-30T07:30:24.448Z,95.81
2022-11-30T07:31:24.558Z,95.61
2022-11-30T07:32:24.518Z,95.71
2022-11-30T07:33:24.579Z,95.71
2022-11-30T07:34:24.578Z,95.71
2022-11-30T07:35:24.564Z,95.92
2022-11-30T07:36:24.611Z,96.22
2022-11-30T07:37:24.670Z,95.81
2022-11-30T07:38:24.680Z,96.12
2022-11-30T07:39:24.712Z,96.02
2022-11-30T07:40:24.734Z,96.02
2022-11-30T07:41:24.742Z,96.02
2022-11-30T07:42:24.757Z,95.71
2022-11-30T07:43:24.771Z,96.02
2022-11-30T07:44:24.811Z,95.92
2022-11-30T07:45:24.838Z,95.92
2022-11-30T07:46:24.852Z,95.92
2022-11-30T07:47:24.862Z,96.17
2022-11-30T07:48:24.882Z,96.37
2022-11-30T07:49:24.904Z,96.22
2022-11-30T07:50:24.924Z,96.17
2022-11-30T07:51:24.943Z,96.47
2022-11-30T07:52:24.959Z,96.68
2022-11-30T07:53:24.983Z,96.53
2022-11-30T07:54:25.034Z,96.33
2022-11-30T07:55:25.003Z,96.43
2022-11-30T07:56:25.045Z,96.22
2022-11-30T07:57:25.077Z,96.43
2022-11-30T07:58:25.106Z,96.33
2022-11-30T07:59:25.177Z,96.22
2022-11-30T08:00:25.196Z,96.22
2022-11-30T08:01:25.270Z,95.81
2022-11-30T08:02:25.307Z,96.17
2022-11-30T08:03:25.276Z,96.27
2022-11-30T08:04:25.333Z,96.27
2022-11-30T08:05:25.306Z,96.37
2022-11-30T08:06:25.377Z,96.31
2022-11-30T08:07:25.429Z,96.72
2022-11-30T08:08:25.457Z,96.78
2022-11-30T08:09:25.497Z,96.68
2022-11-30T08:10:25.711Z,96.37
2022-11-30T08:11:25.560Z,96.27
2022-11-30T08:12:25.607Z,96.68
2022-11-30T08:13:25.679Z,96.53
2022-11-30T08:14:25.749Z,96.33
2022-11-30T08:15:32.055Z,96.12
2022-11-30T08:16:25.893Z,96.17
2022-11-30T08:17:25.878Z,96.06
2022-11-30T08:18:25.906Z,96.17
2022-11-30T08:19:25.950Z,96.27
2022-11-30T08:20:26.029Z,95.75
2022-11-30T08:21:26.030Z,96.62
2022-11-30T08:22:26.010Z,96.72
2022-11-30T08:23:26.000Z,96.72
2022-11-30T08:24:26.070Z,97.39
2022-11-30T08:25:26.031Z,97.49
2022-11-30T08:26:26.063Z,97.65
2022-11-30T08:27:26.085Z,97.34
2022-11-30T08:28:26.106Z,97.03
2022-11-30T08:29:26.123Z,96.83
2022-11-30T08:30:27.943Z,97.03
2022-11-30T08:31:26.278Z,96.83
2022-11-30T08:32:26.273Z,96.93
2022-11-30T08:33:29.352Z,96.72
2022-11-30T08:34:26.333Z,96.83
2022-11-30T08:35:26.393Z,96.72
2022-11-30T08:36:26.475Z,96.72
2022-11-30T08:37:26.444Z,96.52
2022-11-30T08:38:26.514Z,96.42
2022-11-30T08:39:26.587Z,96.31
2022-11-30T08:40:26.612Z,96.31
2022-11-30T08:41:26.665Z,97.03
2022-11-30T08:42:26.686Z,96.83
2022-11-30T08:43:26.714Z,96.52
2022-11-30T08:44:26.735Z,96.72
2022-11-30T08:45:26.807Z,96.72
2022-11-30T08:47:26.916Z,96.52
2022-11-30T08:48:26.932Z,96.72
2022-11-30T08:49:26.986Z,96.27
2022-11-30T08:50:27.016Z,95.86
2022-11-30T08:51:27.057Z,96.21
2022-11-30T08:52:27.078Z,96.21
2022-11-30T08:53:27.127Z,96.31
2022-11-30T08:54:27.160Z,96.17
2022-11-30T08:55:27.190Z,96.06
2022-11-30T08:56:27.217Z,95.96
2022-11-30T08:57:27.247Z,95.90
2022-11-30T08:58:27.288Z,96.31
2022-11-30T08:59:27.320Z,96.31
2022-11-30T09:00:27.341Z,96.21
2022-11-30T09:01:29.894Z,96.27
2022-11-30T09:02:27.501Z,96.17
2022-11-30T09:03:27.430Z,95.96
2022-11-30T09:04:27.431Z,96.00
2022-11-30T09:05:27.483Z,96.11
2022-11-30T09:06:27.490Z,96.27
2022-11-30T09:07:27.572Z,95.86
2022-11-30T09:08:27.580Z,95.75
2022-11-30T09:09:27.630Z,95.65
2022-11-30T09:10:27.671Z,95.65
2022-11-30T09:11:27.720Z,95.70
2022-11-30T09:12:27.772Z,95.59
2022-11-30T09:13:27.852Z,96.11
2022-11-30T09:14:27.909Z,96.00
2022-11-30T09:15:27.963Z,96.05
2022-11-30T09:16:28.023Z,96.56
2022-11-30T09:17:28.042Z,96.42
2022-11-30T09:18:28.084Z,96.15
2022-11-30T09:19:28.108Z,96.56
2022-11-30T09:20:28.103Z,96.46
2022-11-30T09:21:28.171Z,96.05
2022-11-30T09:22:28.134Z,96.46
2022-11-30T09:23:28.133Z,96.15
2022-11-30T09:24:28.203Z,96.25
2022-11-30T09:25:28.255Z,95.95
2022-11-30T09:26:28.314Z,96.36
2022-11-30T09:27:28.364Z,96.25
2022-11-30T09:28:28.406Z,95.90
2022-11-30T09:29:28.461Z,95.84
2022-11-30T09:30:28.540Z,96.05
2022-11-30T09:31:28.505Z,96.15
2022-11-30T09:32:28.541Z,96.25
2022-11-30T09:33:28.566Z,96.05
2022-11-30T09:34:28.646Z,96.11
2022-11-30T09:35:28.638Z,95.90
2022-11-30T09:36:28.676Z,95.80
2022-11-30T09:37:28.717Z,95.59
2022-11-30T09:38:28.727Z,95.59
2022-11-30T09:39:28.737Z,95.28
2022-11-30T09:40:33.907Z,95.49
2022-11-30T09:41:28.809Z,95.18
2022-11-30T09:42:28.809Z,95.49
2022-11-30T09:43:28.862Z,95.08
2022-11-30T09:44:28.848Z,95.23
2022-11-30T09:45:28.861Z,95.43
2022-11-30T09:46:28.988Z,95.84
2022-11-30T09:47:31.905Z,95.64
2022-11-30T09:48:29.010Z,95.74
2022-11-30T09:49:29.088Z,95.84
2022-11-30T09:50:29.080Z,95.84
2022-11-30T09:51:29.080Z,95.99
2022-11-30T09:52:29.072Z,96.30
2022-11-30T09:53:30.050Z,96.41
2022-11-30T09:54:29.169Z,96.50
2022-11-30T09:55:29.152Z,96.67
2022-11-30T09:56:29.222Z,96.46
2022-11-30T09:57:29.221Z,96.00
2022-11-30T09:58:29.282Z,95.80
2022-11-30T09:59:29.333Z,95.43
2022-11-30T10:00:29.312Z,95.74
2022-11-30T10:01:32.638Z,95.84
2022-11-30T10:02:29.481Z,95.95
2022-11-30T10:03:29.396Z,95.74
2022-11-30T10:04:29.394Z,95.84
2022-11-30T10:05:29.384Z,95.95
2022-11-30T10:06:29.449Z,95.53
2022-11-30T10:07:29.568Z,95.64
2022-11-30T10:08:29.525Z,95.53
2022-11-30T10:09:29.545Z,95.74
2022-11-30T10:10:32.660Z,95.64
2022-11-30T10:11:30.438Z,96.05
2022-11-30T10:12:29.616Z,95.23
2022-11-30T10:13:29.628Z,95.78
2022-11-30T10:14:29.635Z,96.20
2022-11-30T10:15:29.626Z,96.20
2022-11-30T10:16:29.718Z,96.09
2022-11-30T10:17:29.627Z,96.05
2022-11-30T10:18:29.637Z,95.84
2022-11-30T10:19:29.626Z,95.84
2022-11-30T10:20:29.679Z,95.64
2022-11-30T10:21:29.717Z,95.43
2022-11-30T10:22:29.757Z,95.43
2022-11-30T10:23:29.797Z,95.84
2022-11-30T10:24:29.960Z,95.99
2022-11-30T10:25:29.878Z,96.25
2022-11-30T10:26:29.920Z,96.05
2022-11-30T10:27:29.959Z,96.41
2022-11-30T10:28:47.985Z,96.61
2022-11-30T10:29:30.031Z,96.46
2022-11-30T10:30:30.050Z,96.05
2022-11-30T10:31:30.172Z,95.95
2022-11-30T10:32:30.149Z,95.53
2022-11-30T10:33:35.326Z,95.64
2022-11-30T10:34:30.180Z,95.84
2022-11-30T10:35:30.199Z,95.64
2022-11-30T10:36:30.204Z,95.53
2022-11-30T10:37:30.200Z,95.64
2022-11-30T10:38:30.200Z,95.43
2022-11-30T10:39:30.199Z,95.53
2022-11-30T10:40:30.192Z,95.53
2022-11-30T10:41:30.211Z,95.43
2022-11-30T10:42:30.237Z,95.43
2022-11-30T10:43:30.234Z,95.33
2022-11-30T10:44:30.232Z,94.98
2022-11-30T10:45:30.232Z,95.08
2022-11-30T10:46:30.298Z,94.87
2022-11-30T10:47:30.251Z,95.02
2022-11-30T10:48:30.255Z,95.02
2022-11-30T10:49:30.314Z,95.23
2022-11-30T10:50:30.357Z,95.23
2022-11-30T10:51:30.403Z,95.02
2022-11-30T10:52:30.444Z,95.18
2022-11-30T10:53:30.493Z,95.08
2022-11-30T10:54:30.545Z,94.56
2022-11-30T10:55:30.595Z,94.98
2022-11-30T10:56:30.646Z,94.98
2022-11-30T10:57:30.685Z,94.92
2022-11-30T10:58:30.755Z,94.60
2022-11-30T10:59:30.796Z,94.81
2022-11-30T11:00:30.856Z,94.92
2022-11-30T11:01:30.938Z,94.81
2022-11-30T11:02:30.937Z,94.92
2022-11-30T11:03:30.887Z,94.92
2022-11-30T11:04:30.933Z,95.08
2022-11-30T11:05:30.961Z,94.26
2022-11-30T11:06:30.978Z,94.56
2022-11-30T11:07:31.068Z,94.15
2022-11-30T11:08:30.973Z,94.15
2022-11-30T11:09:30.965Z,94.36
2022-11-30T11:10:30.970Z,94.46
2022-11-30T11:11:30.979Z,94.98
2022-11-30T11:12:31.027Z,94.93
2022-11-30T11:13:31.029Z,94.73
2022-11-30T11:14:35.004Z,94.01
2022-11-30T11:15:31.120Z,94.01
2022-11-30T11:16:31.093Z,94.11
2022-11-30T11:17:31.035Z,94.01
2022-11-30T11:18:31.041Z,94.01
2022-11-30T11:19:31.060Z,93.95
2022-11-30T11:20:31.282Z,94.21
2022-11-30T11:21:31.123Z,93.95
2022-11-30T11:22:31.180Z,94.01
2022-11-30T11:23:31.241Z,93.95
2022-11-30T11:24:31.281Z,94.36
2022-11-30T11:25:31.361Z,94.46
2022-11-30T11:26:31.345Z,94.36
2022-11-30T11:27:31.342Z,94.46
2022-11-30T11:28:31.381Z,94.77
2022-11-30T11:29:31.469Z,94.56
2022-11-30T11:30:31.453Z,94.77
2022-11-30T11:31:31.527Z,94.87
2022-11-30T11:32:31.434Z,94.67
2022-11-30T11:33:31.473Z,94.77
2022-11-30T11:34:31.523Z,94.56
2022-11-30T11:35:31.583Z,94.77
2022-11-30T11:36:31.605Z,94.87
2022-11-30T11:37:31.572Z,94.56
2022-11-30T11:38:31.678Z,94.77
2022-11-30T11:39:31.659Z,94.77
2022-11-30T11:40:31.726Z,94.62
2022-11-30T11:41:31.726Z,94.15
2022-11-30T11:42:31.739Z,94.42
2022-11-30T11:43:31.795Z,94.62
2022-11-30T11:44:31.876Z,94.31
2022-11-30T11:45:31.896Z,93.90
2022-11-30T11:46:32.008Z,93.90
2022-11-30T11:47:31.964Z,93.59
2022-11-30T11:48:31.957Z,93.80
2022-11-30T11:49:32.017Z,93.49
2022-11-30T11:51:04.968Z,93.70
2022-11-30T11:51:32.088Z,94.11
2022-11-30T11:52:32.120Z,94.05
2022-11-30T11:53:32.201Z,94.56
2022-11-30T11:54:32.168Z,94.56
2022-11-30T11:55:32.218Z,94.56
2022-11-30T11:56:32.272Z,94.31
2022-11-30T11:57:32.533Z,94.21
2022-11-30T11:58:32.378Z,94.05
2022-11-30T11:59:32.945Z,94.60
2022-11-30T12:00:32.432Z,95.23
2022-11-30T12:01:39.692Z,95.33
2022-11-30T12:02:32.537Z,95.53
2022-11-30T12:03:32.461Z,95.33
2022-11-30T12:04:32.589Z,95.39
2022-11-30T12:05:32.462Z,95.17
2022-11-30T12:06:32.530Z,95.99
2022-11-30T12:07:32.562Z,95.99
2022-11-30T12:08:32.560Z,96.20
2022-11-30T12:09:32.641Z,96.61
2022-11-30T12:11:32.682Z,96.30
2022-11-30T12:12:32.691Z,96.71
2022-11-30T12:13:32.692Z,96.61
2022-11-30T12:14:32.692Z,96.46
2022-11-30T12:15:32.682Z,96.41
2022-11-30T12:16:32.763Z,96.50
2022-11-30T12:17:32.703Z,96.77
2022-11-30T12:18:32.791Z,96.05
2022-11-30T12:19:32.767Z,96.50
2022-11-30T12:20:32.824Z,96.46
2022-11-30T12:21:32.872Z,96.46
2022-11-30T12:22:32.938Z,96.25
2022-11-30T12:23:32.974Z,96.25
2022-11-30T12:24:33.050Z,95.80
2022-11-30T12:25:33.086Z,95.74
2022-11-30T12:26:33.151Z,95.80
2022-11-30T12:27:33.216Z,95.39
2022-11-30T12:28:33.176Z,95.74
2022-11-30T12:29:33.226Z,96.05
2022-11-30T12:30:33.279Z,96.25
2022-11-30T12:31:33.397Z,96.25
2022-11-30T12:32:33.367Z,96.21
2022-11-30T12:33:33.451Z,95.59
2022-11-30T12:34:33.418Z,95.59
2022-11-30T12:35:33.408Z,95.64
2022-11-30T12:36:33.470Z,95.53
2022-11-30T12:37:33.507Z,95.43
2022-11-30T12:38:33.545Z,95.53
2022-11-30T12:39:33.537Z,95.78
2022-11-30T12:40:33.538Z,95.84
2022-11-30T12:41:33.537Z,95.99
2022-11-30T12:42:33.540Z,95.95
2022-11-30T12:43:33.558Z,95.84
2022-11-30T12:44:38.513Z,96.25
2022-11-30T12:45:33.600Z,96.05
2022-11-30T12:46:33.654Z,95.74
2022-11-30T12:47:33.640Z,95.64
2022-11-30T12:48:33.696Z,95.53
2022-11-30T12:49:33.699Z,95.74
2022-11-30T12:50:33.739Z,95.74
2022-11-30T12:51:33.770Z,96.05
2022-11-30T12:52:33.758Z,95.95
2022-11-30T12:53:33.772Z,95.95
2022-11-30T12:54:33.822Z,95.64